createdAt,value
2023-03-05T00:01:58.580Z,9.63
2023-03-05T00:07:01.280Z,20.42
2023-03-05T00:12:05.167Z,11.05
2023-03-05T00:17:08.078Z,11.67
2023-03-05T00:22:10.852Z,8.90
2023-03-05T00:27:15.162Z,15.20
2023-03-05T00:32:17.852Z,10.80
2023-03-05T00:37:21.723Z,12.35
2023-03-05T00:42:24.300Z,10.88
2023-03-05T00:47:28.457Z,7.38
2023-03-05T00:52:31.136Z,9.00
2023-03-05T00:57:35.129Z,13.23
2023-03-05T01:02:38.147Z,8.50
2023-03-05T01:07:41.458Z,5.82
2023-03-05T01:12:43.981Z,9.90
2023-03-05T01:17:47.399Z,14.70
2023-03-05T01:22:50.063Z,7.15
2023-03-05T01:27:53.100Z,12.38
2023-03-05T01:32:56.770Z,10.48
2023-03-05T01:37:59.684Z,11.07
2023-03-05T01:43:11.449Z,13.80
2023-03-05T01:48:14.043Z,13.10
2023-03-05T01:53:16.595Z,14.60
2023-03-05T01:58:20.150Z,13.23
2023-03-05T02:03:24.089Z,19.83
2023-03-05T02:08:26.830Z,15.63
2023-03-05T02:13:35.831Z,17.65
2023-03-05T02:18:40.200Z,21.90
2023-03-05T02:23:42.899Z,14.93
2023-03-05T02:28:49.756Z,21.98
2023-03-05T02:33:54.120Z,15.50
2023-03-05T02:44:02.502Z,14.18
2023-03-05T02:49:05.458Z,22.67
2023-03-05T02:54:13.270Z,16.60
2023-03-05T02:59:16.171Z,14.40
2023-03-05T03:04:20.236Z,16.55
2023-03-05T03:09:23.612Z,19.33
2023-03-05T03:14:26.213Z,17.15
2023-03-05T03:19:28.811Z,14.57
2023-03-05T03:24:34.080Z,21.17
2023-03-05T03:29:36.908Z,13.52
2023-03-05T03:34:39.742Z,11.68
2023-03-05T03:39:42.486Z,14.68
2023-03-05T03:44:45.145Z,9.82
2023-03-05T03:49:47.846Z,17.27
2023-03-05T03:54:53.099Z,10.50
2023-03-05T03:59:59.236Z,8.07
2023-03-05T04:05:02.093Z,12.05
2023-03-05T04:10:05.414Z,16.88
2023-03-05T04:15:08.603Z,14.18
2023-03-05T04:20:11.852Z,12.52
2023-03-05T04:25:14.467Z,17.90
2023-03-05T04:30:17.198Z,13.77
2023-03-05T04:35:23.678Z,23.10
2023-03-05T04:40:26.458Z,22.77
2023-03-05T04:45:29.094Z,10.20
2023-03-05T04:50:31.681Z,22.48
2023-03-05T04:55:34.273Z,13.35
2023-03-05T05:00:55.397Z,15.05
2023-03-05T05:05:59.499Z,12.52
2023-03-05T05:11:04.765Z,11.48
2023-03-05T05:16:08.198Z,18.30
2023-03-05T05:21:13.938Z,16.90
2023-03-05T05:26:16.535Z,14.63
2023-03-05T05:31:20.697Z,16.10
2023-03-05T05:36:25.023Z,11.90
2023-03-05T05:41:32.937Z,19.52
2023-03-05T05:46:36.083Z,11.20
2023-03-05T05:51:38.974Z,15.65
2023-03-05T05:56:42.742Z,12.77
2023-03-05T06:01:45.490Z,14.48
2023-03-05T06:06:48.365Z,18.85
2023-03-05T06:11:51.119Z,15.02
2023-03-05T06:16:53.759Z,16.58
2023-03-05T06:21:58.349Z,15.85
2023-03-05T06:27:00.936Z,23.05
2023-03-05T06:32:05.003Z,13.77
2023-03-05T06:37:07.626Z,11.20
2023-03-05T06:42:10.203Z,15.15
2023-03-05T06:47:12.806Z,28.63
2023-03-05T06:52:15.374Z,13.70
2023-03-05T06:57:17.947Z,14.05
2023-03-05T07:02:20.560Z,25.80
2023-03-05T07:07:23.126Z,14.65
2023-03-05T07:12:25.757Z,13.95
2023-03-05T07:17:28.465Z,16.95
2023-03-05T07:22:31.865Z,22.20
2023-03-05T07:27:39.357Z,28.65
2023-03-05T07:32:42.443Z,21.85
2023-03-05T07:37:46.382Z,28.25
2023-03-05T07:42:50.586Z,25.00
2023-03-05T07:48:04.369Z,24.02
2023-03-05T07:53:07.299Z,25.30
2023-03-05T08:03:15.525Z,24.98
2023-03-05T08:08:18.728Z,29.20
2023-03-05T08:13:21.988Z,16.08
2023-03-05T08:18:24.913Z,19.45
2023-03-05T08:23:28.268Z,22.13
2023-03-05T08:28:34.342Z,17.87
2023-03-05T08:33:37.956Z,26.45
2023-03-05T08:38:40.737Z,10.27
2023-03-05T08:43:43.392Z,13.30
2023-03-05T08:48:46.281Z,15.75
2023-03-05T08:53:49.016Z,10.85
2023-03-05T08:58:53.072Z,11.90
2023-03-05T09:03:55.769Z,12.77
2023-03-05T09:09:00.038Z,12.02
2023-03-05T09:14:04.753Z,11.60
2023-03-05T09:19:10.700Z,14.00
2023-03-05T09:24:14.002Z,12.55
2023-03-05T09:29:17.088Z,9.13
2023-03-05T09:34:19.835Z,13.13
2023-03-05T09:39:22.374Z,11.82
2023-03-05T09:44:39.046Z,8.57
2023-03-05T09:49:52.446Z,13.85
2023-03-05T09:54:57.159Z,10.52
2023-03-05T10:00:02.384Z,13.23
2023-03-05T10:05:20.605Z,11.23
2023-03-05T10:10:28.184Z,13.40
2023-03-05T10:15:54.305Z,11.82
2023-03-05T10:21:15.159Z,10.48
2023-03-05T10:26:45.794Z,6.93
2023-03-05T10:31:56.473Z,6.78
2023-03-05T10:37:22.586Z,7.93
2023-03-05T10:42:31.080Z,12.25
2023-03-05T10:47:49.023Z,8.23
2023-03-05T10:53:03.981Z,5.32
2023-03-05T10:58:15.315Z,5.20
2023-03-05T11:03:18.061Z,7.80
2023-03-05T11:08:33.412Z,6.80
2023-03-05T11:13:41.680Z,8.07
2023-03-05T11:18:46.573Z,6.13
2023-03-05T11:24:11.011Z,3.35
2023-03-05T11:34:19.321Z,9.30
2023-03-05T11:39:23.711Z,9.07
2023-03-05T11:44:49.225Z,9.70
2023-03-05T11:49:56.063Z,2.75
2023-03-05T11:55:13.599Z,4.40
2023-03-05T12:00:19.724Z,4.18
2023-03-05T12:05:25.762Z,4.50
2023-03-05T12:10:28.605Z,6.05
2023-03-05T12:15:56.425Z,7.57
2023-03-05T12:21:08.647Z,7.32
2023-03-05T12:26:11.280Z,2.22
2023-03-05T12:31:37.947Z,2.53
2023-03-05T12:36:41.596Z,3.83
2023-03-05T12:41:45.229Z,17.80
2023-03-05T12:47:12.866Z,3.75
2023-03-05T12:52:26.768Z,4.82
2023-03-05T12:57:31.383Z,8.57
2023-03-05T13:02:41.558Z,5.80
2023-03-05T13:07:44.164Z,10.77
2023-03-05T13:12:55.028Z,3.13
2023-03-05T13:18:08.689Z,4.40
2023-03-05T13:23:22.540Z,7.23
2023-03-05T13:29:02.670Z,3.85
2023-03-05T13:34:15.492Z,5.93
2023-03-05T13:39:25.107Z,6.50
2023-03-05T13:44:29.511Z,11.85
2023-03-05T13:49:33.094Z,1.95
2023-03-05T13:54:35.925Z,5.87
2023-03-05T13:59:42.486Z,2.30
2023-03-05T14:04:46.167Z,5.90
2023-03-05T14:09:50.348Z,4.53
2023-03-05T14:14:53.142Z,1.80
2023-03-05T14:20:19.749Z,5.88
2023-03-05T14:25:28.979Z,6.47
2023-03-05T14:30:32.454Z,2.63
2023-03-05T14:35:36.042Z,6.03
2023-03-05T14:40:38.690Z,3.13
2023-03-05T14:45:48.031Z,5.13
2023-03-05T14:50:57.025Z,4.35
2023-03-05T14:56:00.007Z,3.42
2023-03-05T15:01:04.205Z,10.73
2023-03-05T15:06:09.915Z,6.00
2023-03-05T15:11:12.673Z,10.43
2023-03-05T15:16:16.519Z,6.47
2023-03-05T15:21:19.231Z,6.37
2023-03-05T15:26:22.148Z,5.90
2023-03-05T15:31:26.405Z,6.57
2023-03-05T15:36:30.573Z,6.93
2023-03-05T15:41:34.476Z,7.28
2023-03-05T15:46:38.412Z,7.13
2023-03-05T15:51:41.850Z,7.57
2023-03-05T15:56:44.734Z,3.65
2023-03-05T16:01:52.078Z,5.25
2023-03-05T16:06:56.094Z,6.65
2023-03-05T16:11:59.187Z,6.10
2023-03-05T16:17:03.548Z,7.78
2023-03-05T16:22:08.105Z,4.68
2023-03-05T16:27:13.720Z,6.22
2023-03-05T16:32:17.987Z,6.78
2023-03-05T16:37:23.802Z,11.85
2023-03-05T16:42:26.669Z,7.95
2023-03-05T16:47:29.620Z,8.15
2023-03-05T16:52:32.210Z,6.00
2023-03-05T16:57:35.378Z,9.73
2023-03-05T17:02:38.038Z,10.38
2023-03-05T17:07:40.705Z,9.93
2023-03-05T17:12:43.683Z,10.65
2023-03-05T17:17:46.356Z,16.77
2023-03-05T17:22:48.897Z,6.13
2023-03-05T17:27:51.605Z,9.57
2023-03-05T17:32:54.268Z,18.90
2023-03-05T17:37:57.079Z,8.73
2023-03-05T17:42:59.779Z,15.80
2023-03-05T17:48:02.656Z,12.63
2023-03-05T17:53:05.405Z,9.40
2023-03-05T17:58:08.669Z,9.60
2023-03-05T18:03:11.737Z,10.43
2023-03-05T18:08:14.531Z,11.40
2023-03-05T18:13:17.779Z,13.15
2023-03-05T18:18:39.113Z,6.25
2023-03-05T18:23:41.763Z,9.23
2023-03-05T18:28:44.694Z,12.38
2023-03-05T18:33:47.321Z,10.48
2023-03-05T18:38:50.787Z,9.88
2023-03-05T18:43:54.576Z,7.88
2023-03-05T18:48:58.375Z,5.45
2023-03-05T18:54:01.106Z,7.10
2023-03-05T18:59:03.921Z,8.32
2023-03-05T19:04:07.114Z,9.48
2023-03-05T19:09:19.589Z,11.40
2023-03-05T19:14:22.204Z,10.93
2023-03-05T19:19:25.418Z,5.93
2023-03-05T19:24:30.020Z,7.28
2023-03-05T19:29:33.136Z,8.18
2023-03-05T19:34:36.223Z,10.07
2023-03-05T19:39:38.991Z,4.47
2023-03-05T19:44:41.952Z,7.40
2023-03-05T19:49:44.721Z,7.10
2023-03-05T19:54:47.662Z,11.05
2023-03-05T19:59:52.665Z,6.97
2023-03-05T20:04:55.333Z,5.15
2023-03-05T20:09:58.015Z,11.85
2023-03-05T20:15:00.530Z,7.82
2023-03-05T20:20:03.497Z,8.68
2023-03-05T20:25:07.132Z,10.68
2023-03-05T20:30:14.644Z,9.18
2023-03-05T20:35:19.077Z,10.10
2023-03-05T20:40:22.250Z,7.85
2023-03-05T20:45:24.807Z,9.65
2023-03-05T20:50:28.172Z,9.13
2023-03-05T20:55:31.058Z,10.43
2023-03-05T21:00:34.544Z,16.83
2023-03-05T21:05:37.716Z,11.57
2023-03-05T21:10:40.698Z,7.35
2023-03-05T21:15:43.300Z,11.35
2023-03-05T21:20:46.295Z,9.13
2023-03-05T21:25:49.065Z,16.48
2023-03-05T21:30:55.385Z,13.50
2023-03-05T21:35:58.200Z,11.52
2023-03-05T21:41:01.943Z,10.48
2023-03-05T21:46:04.918Z,11.32
2023-03-05T21:51:08.729Z,14.63
2023-03-05T21:56:12.396Z,10.97
2023-03-05T22:01:20.997Z,15.40
2023-03-05T22:06:23.778Z,9.48
2023-03-05T22:11:26.343Z,12.57
2023-03-05T22:16:29.330Z,16.52
2023-03-05T22:21:32.164Z,17.48
2023-03-05T22:26:37.922Z,11.18
2023-03-05T22:31:40.968Z,10.25
2023-03-05T22:36:43.688Z,10.50
2023-03-05T22:41:46.341Z,11.25
2023-03-05T22:46:50.566Z,12.25
2023-03-05T22:51:53.813Z,10.88
2023-03-05T22:56:56.425Z,8.98
2023-03-05T23:01:59.634Z,11.02
2023-03-05T23:07:02.161Z,8.55
2023-03-05T23:12:05.326Z,8.00
2023-03-05T23:17:07.834Z,10.40
2023-03-05T23:22:12.135Z,6.78
2023-03-05T23:32:18.187Z,13.48
2023-03-05T23:37:20.713Z,12.00
2023-03-05T23:42:24.882Z,12.52
2023-03-05T23:47:27.490Z,10.20
2023-03-05T23:52:30.062Z,11.93
2023-03-05T23:57:32.628Z,7.15
